sensor_id;sensor_type;location;lat;lon;timestamp;temperature;humidity
66506;HTU21D;53332;51.082;5.832;2023-12-29T00:00:39;11.55;118.99
66506;HTU21D;53332;51.082;5.832;2023-12-29T00:03:05;11.57;118.99
66506;HTU21D;53332;51.082;5.832;2023-12-29T00:05:30;11.49;118.99
66506;HTU21D;53332;51.082;5.832;2023-12-29T00:07:56;11.55;118.99
66506;HTU21D;53332;51.082;5.832;2023-12-29T00:10:22;11.53;118.99
66506;HTU21D;53332;51.082;5.832;2023-12-29T00:12:47;11.48;118.99
66506;HTU21D;53332;51.082;5.832;2023-12-29T00:15:17;11.46;118.99
66506;HTU21D;53332;51.082;5.832;2023-12-29T00:17:42;11.52;118.99
66506;HTU21D;53332;51.082;5.832;2023-12-29T00:20:08;11.52;118.99
66506;HTU21D;53332;51.082;5.832;2023-12-29T00:22:34;11.52;118.99
66506;HTU21D;53332;51.082;5.832;2023-12-29T00:25:00;11.53;118.99
66506;HTU21D;53332;51.082;5.832;2023-12-29T00:27:25;11.44;118.99
66506;HTU21D;53332;51.082;5.832;2023-12-29T00:29:51;11.46;118.99
66506;HTU21D;53332;51.082;5.832;2023-12-29T00:32:16;11.43;118.99
66506;HTU21D;53332;51.082;5.832;2023-12-29T00:34:42;11.41;118.99
66506;HTU21D;53332;51.082;5.832;2023-12-29T00:37:08;11.44;118.99
66506;HTU21D;53332;51.082;5.832;2023-12-29T00:39:33;11.43;118.99
66506;HTU21D;53332;51.082;5.832;2023-12-29T00:42:05;11.43;118.99
66506;HTU21D;53332;51.082;5.832;2023-12-29T00:44:33;11.43;118.99
66506;HTU21D;53332;51.082;5.832;2023-12-29T00:46:59;11.41;118.99
66506;HTU21D;53332;51.082;5.832;2023-12-29T00:49:26;11.43;118.99
66506;HTU21D;53332;51.082;5.832;2023-12-29T00:51:52;11.44;118.99
66506;HTU21D;53332;51.082;5.832;2023-12-29T00:54:18;11.40;118.99
66506;HTU21D;53332;51.082;5.832;2023-12-29T00:56:50;11.39;118.99
66506;HTU21D;53332;51.082;5.832;2023-12-29T00:59:18;11.41;118.99
66506;HTU21D;53332;51.082;5.832;2023-12-29T01:01:45;11.38;118.99
66506;HTU21D;53332;51.082;5.832;2023-12-29T01:04:11;11.39;118.99
66506;HTU21D;53332;51.082;5.832;2023-12-29T01:06:36;11.40;118.99
66506;HTU21D;53332;51.082;5.832;2023-12-29T01:09:02;11.38;118.99
66506;HTU21D;53332;51.082;5.832;2023-12-29T01:11:27;11.39;118.99
66506;HTU21D;53332;51.082;5.832;2023-12-29T01:13:53;11.41;118.99
66506;HTU21D;53332;51.082;5.832;2023-12-29T01:16:18;11.37;118.99
66506;HTU21D;53332;51.082;5.832;2023-12-29T01:18:44;11.34;118.99
66506;HTU21D;53332;51.082;5.832;2023-12-29T01:21:09;11.41;118.99
66506;HTU21D;53332;51.082;5.832;2023-12-29T01:23:35;11.40;118.99
66506;HTU21D;53332;51.082;5.832;2023-12-29T01:26:01;11.38;118.99
66506;HTU21D;53332;51.082;5.832;2023-12-29T01:28:26;11.37;118.99
66506;HTU21D;53332;51.082;5.832;2023-12-29T01:30:52;11.38;118.99
66506;HTU21D;53332;51.082;5.832;2023-12-29T01:33:17;11.42;118.99
66506;HTU21D;53332;51.082;5.832;2023-12-29T01:35:43;11.36;118.99
66506;HTU21D;53332;51.082;5.832;2023-12-29T01:38:08;11.32;118.99
66506;HTU21D;53332;51.082;5.832;2023-12-29T01:40:45;11.33;118.99
66506;HTU21D;53332;51.082;5.832;2023-12-29T01:43:12;11.32;118.99
66506;HTU21D;53332;51.082;5.832;2023-12-29T01:45:37;11.34;118.99
66506;HTU21D;53332;51.082;5.832;2023-12-29T01:48:03;11.34;118.99
66506;HTU21D;53332;51.082;5.832;2023-12-29T01:50:29;11.36;118.99
66506;HTU21D;53332;51.082;5.832;2023-12-29T01:52:55;11.36;118.99
66506;HTU21D;53332;51.082;5.832;2023-12-29T01:55:25;11.37;118.99
66506;HTU21D;53332;51.082;5.832;2023-12-29T01:57:52;11.38;118.99
66506;HTU21D;53332;51.082;5.832;2023-12-29T02:00:18;11.43;118.99
66506;HTU21D;53332;51.082;5.832;2023-12-29T02:02:46;11.38;118.99
66506;HTU21D;53332;51.082;5.832;2023-12-29T02:05:17;11.37;118.99
66506;HTU21D;53332;51.082;5.832;2023-12-29T02:07:43;11.33;118.99
66506;HTU21D;53332;51.082;5.832;2023-12-29T02:10:09;11.34;118.99
66506;HTU21D;53332;51.082;5.832;2023-12-29T02:12:39;11.33;118.99
66506;HTU21D;53332;51.082;5.832;2023-12-29T02:15:05;11.38;118.99
66506;HTU21D;53332;51.082;5.832;2023-12-29T02:17:40;11.36;118.99
66506;HTU21D;53332;51.082;5.832;2023-12-29T02:20:08;11.37;118.99
66506;HTU21D;53332;51.082;5.832;2023-12-29T02:22:34;11.36;118.99
66506;HTU21D;53332;51.082;5.832;2023-12-29T02:25:00;11.39;118.99
66506;HTU21D;53332;51.082;5.832;2023-12-29T02:27:52;11.33;118.99
66506;HTU21D;53332;51.082;5.832;2023-12-29T02:33:14;11.41;118.99
66506;HTU21D;53332;51.082;5.832;2023-12-29T02:35:43;11.40;118.99
66506;HTU21D;53332;51.082;5.832;2023-12-29T02:38:11;11.41;118.99
66506;HTU21D;53332;51.082;5.832;2023-12-29T02:40:36;11.41;118.99
66506;HTU21D;53332;51.082;5.832;2023-12-29T02:43:02;11.40;118.99
66506;HTU21D;53332;51.082;5.832;2023-12-29T02:45:28;11.41;118.99
66506;HTU21D;53332;51.082;5.832;2023-12-29T02:47:54;11.45;118.99
66506;HTU21D;53332;51.082;5.832;2023-12-29T02:50:20;11.49;118.99
66506;HTU21D;53332;51.082;5.832;2023-12-29T02:52:45;11.47;118.99
66506;HTU21D;53332;51.082;5.832;2023-12-29T02:55:11;11.49;118.99
66506;HTU21D;53332;51.082;5.832;2023-12-29T02:57:37;11.52;118.99
66506;HTU21D;53332;51.082;5.832;2023-12-29T03:00:04;11.47;118.99
66506;HTU21D;53332;51.082;5.832;2023-12-29T03:02:30;11.46;118.99
66506;HTU21D;53332;51.082;5.832;2023-12-29T03:04:56;11.52;118.99
66506;HTU21D;53332;51.082;5.832;2023-12-29T03:07:22;11.48;118.99
66506;HTU21D;53332;51.082;5.832;2023-12-29T03:09:47;11.46;118.99
66506;HTU21D;53332;51.082;5.832;2023-12-29T03:12:13;11.49;118.99
66506;HTU21D;53332;51.082;5.832;2023-12-29T03:14:38;11.51;118.99
66506;HTU21D;53332;51.082;5.832;2023-12-29T03:17:04;11.46;118.99
66506;HTU21D;53332;51.082;5.832;2023-12-29T03:19:29;11.45;118.99
66506;HTU21D;53332;51.082;5.832;2023-12-29T03:21:55;11.52;118.99
66506;HTU21D;53332;51.082;5.832;2023-12-29T03:24:21;11.52;118.99
66506;HTU21D;53332;51.082;5.832;2023-12-29T03:26:46;11.57;118.99
66506;HTU21D;53332;51.082;5.832;2023-12-29T03:29:12;11.54;118.99
66506;HTU21D;53332;51.082;5.832;2023-12-29T03:31:38;11.57;118.99
66506;HTU21D;53332;51.082;5.832;2023-12-29T03:34:04;11.56;118.99
66506;HTU21D;53332;51.082;5.832;2023-12-29T03:36:30;11.57;118.99
66506;HTU21D;53332;51.082;5.832;2023-12-29T03:38:55;11.55;118.99
66506;HTU21D;53332;51.082;5.832;2023-12-29T03:41:21;11.41;118.99
66506;HTU21D;53332;51.082;5.832;2023-12-29T03:43:46;11.39;118.99
66506;HTU21D;53332;51.082;5.832;2023-12-29T03:46:20;11.43;118.99
66506;HTU21D;53332;51.082;5.832;2023-12-29T03:48:46;11.44;118.99
66506;HTU21D;53332;51.082;5.832;2023-12-29T03:51:13;11.46;118.99
66506;HTU21D;53332;51.082;5.832;2023-12-29T03:53:38;11.46;118.99
66506;HTU21D;53332;51.082;5.832;2023-12-29T03:56:09;11.43;118.99
66506;HTU21D;53332;51.082;5.832;2023-12-29T03:58:35;11.41;118.99
66506;HTU21D;53332;51.082;5.832;2023-12-29T04:01:01;11.37;118.99
66506;HTU21D;53332;51.082;5.832;2023-12-29T04:03:27;11.42;118.99
66506;HTU21D;53332;51.082;5.832;2023-12-29T04:05:53;11.39;118.99
66506;HTU21D;53332;51.082;5.832;2023-12-29T04:08:18;11.38;118.99
66506;HTU21D;53332;51.082;5.832;2023-12-29T04:10:44;11.34;118.99
66506;HTU21D;53332;51.082;5.832;2023-12-29T04:13:09;11.34;118.99
66506;HTU21D;53332;51.082;5.832;2023-12-29T04:15:35;11.32;118.99
66506;HTU21D;53332;51.082;5.832;2023-12-29T04:18:01;11.34;118.99
66506;HTU21D;53332;51.082;5.832;2023-12-29T04:20:26;11.37;118.99
66506;HTU21D;53332;51.082;5.832;2023-12-29T04:22:52;11.39;118.99
66506;HTU21D;53332;51.082;5.832;2023-12-29T04:25:17;11.34;118.99
66506;HTU21D;53332;51.082;5.832;2023-12-29T04:27:43;11.31;118.99
66506;HTU21D;53332;51.082;5.832;2023-12-29T04:30:09;11.32;118.99
66506;HTU21D;53332;51.082;5.832;2023-12-29T04:32:35;11.31;118.99
66506;HTU21D;53332;51.082;5.832;2023-12-29T04:35:01;11.29;118.99
66506;HTU21D;53332;51.082;5.832;2023-12-29T04:37:26;11.30;118.99
66506;HTU21D;53332;51.082;5.832;2023-12-29T04:39:52;11.28;118.99
66506;HTU21D;53332;51.082;5.832;2023-12-29T04:42:17;11.27;118.99
66506;HTU21D;53332;51.082;5.832;2023-12-29T04:44:44;11.25;118.99
66506;HTU21D;53332;51.082;5.832;2023-12-29T04:47:09;11.27;118.99
66506;HTU21D;53332;51.082;5.832;2023-12-29T04:49:35;11.30;118.99
66506;HTU21D;53332;51.082;5.832;2023-12-29T04:52:00;11.27;118.99
66506;HTU21D;53332;51.082;5.832;2023-12-29T04:54:27;11.22;118.99
66506;HTU21D;53332;51.082;5.832;2023-12-29T04:56:52;11.23;118.99
66506;HTU21D;53332;51.082;5.832;2023-12-29T04:59:18;11.25;118.99
66506;HTU21D;53332;51.082;5.832;2023-12-29T05:01:43;11.23;118.99
66506;HTU21D;53332;51.082;5.832;2023-12-29T05:04:09;11.24;118.99
66506;HTU21D;53332;51.082;5.832;2023-12-29T05:06:34;11.16;118.99
66506;HTU21D;53332;51.082;5.832;2023-12-29T05:09:00;11.18;118.99
66506;HTU21D;53332;51.082;5.832;2023-12-29T05:11:25;11.19;118.99
66506;HTU21D;53332;51.082;5.832;2023-12-29T05:13:51;11.19;118.99
66506;HTU21D;53332;51.082;5.832;2023-12-29T05:16:17;11.20;118.99
66506;HTU21D;53332;51.082;5.832;2023-12-29T05:18:42;11.22;118.99
66506;HTU21D;53332;51.082;5.832;2023-12-29T05:21:18;11.13;118.99
66506;HTU21D;53332;51.082;5.832;2023-12-29T05:23:44;11.13;118.99
66506;HTU21D;53332;51.082;5.832;2023-12-29T05:26:11;11.14;118.99
66506;HTU21D;53332;51.082;5.832;2023-12-29T05:28:36;11.13;118.99
66506;HTU21D;53332;51.082;5.832;2023-12-29T05:31:02;11.12;118.99
66506;HTU21D;53332;51.082;5.832;2023-12-29T05:33:32;11.11;118.99
66506;HTU21D;53332;51.082;5.832;2023-12-29T05:35:58;11.15;118.99
66506;HTU21D;53332;51.082;5.832;2023-12-29T05:38:24;11.15;118.99
66506;HTU21D;53332;51.082;5.832;2023-12-29T05:40:50;11.10;118.99
66506;HTU21D;53332;51.082;5.832;2023-12-29T05:43:17;11.12;118.99
66506;HTU21D;53332;51.082;5.832;2023-12-29T05:45:43;11.09;118.99
66506;HTU21D;53332;51.082;5.832;2023-12-29T05:48:08;11.09;118.99
66506;HTU21D;53332;51.082;5.832;2023-12-29T05:50:34;11.08;118.99
66506;HTU21D;53332;51.082;5.832;2023-12-29T05:52:59;11.05;118.99
66506;HTU21D;53332;51.082;5.832;2023-12-29T05:55:25;11.08;118.99
66506;HTU21D;53332;51.082;5.832;2023-12-29T05:57:51;11.10;118.99
66506;HTU21D;53332;51.082;5.832;2023-12-29T06:00:16;11.13;118.99
66506;HTU21D;53332;51.082;5.832;2023-12-29T06:02:43;11.14;118.99
66506;HTU21D;53332;51.082;5.832;2023-12-29T06:05:11;11.14;118.99
66506;HTU21D;53332;51.082;5.832;2023-12-29T06:07:37;11.15;118.99
66506;HTU21D;53332;51.082;5.832;2023-12-29T06:10:03;11.15;118.99
66506;HTU21D;53332;51.082;5.832;2023-12-29T06:12:29;11.13;118.99
66506;HTU21D;53332;51.082;5.832;2023-12-29T06:14:55;11.12;118.99
66506;HTU21D;53332;51.082;5.832;2023-12-29T06:17:20;11.13;118.99
66506;HTU21D;53332;51.082;5.832;2023-12-29T06:19:46;11.13;118.99
66506;HTU21D;53332;51.082;5.832;2023-12-29T06:22:11;11.15;118.99
66506;HTU21D;53332;51.082;5.832;2023-12-29T06:24:37;11.17;118.99
66506;HTU21D;53332;51.082;5.832;2023-12-29T06:27:03;11.22;118.99
66506;HTU21D;53332;51.082;5.832;2023-12-29T06:29:29;11.24;118.99
66506;HTU21D;53332;51.082;5.832;2023-12-29T06:31:55;11.26;118.99
66506;HTU21D;53332;51.082;5.832;2023-12-29T06:34:20;11.29;118.99
66506;HTU21D;53332;51.082;5.832;2023-12-29T06:36:46;11.32;118.99
66506;HTU21D;53332;51.082;5.832;2023-12-29T06:39:11;11.33;118.99
66506;HTU21D;53332;51.082;5.832;2023-12-29T06:41:37;11.33;118.99
66506;HTU21D;53332;51.082;5.832;2023-12-29T06:44:03;11.32;118.99
66506;HTU21D;53332;51.082;5.832;2023-12-29T06:46:28;11.37;118.99
66506;HTU21D;53332;51.082;5.832;2023-12-29T06:48:54;11.33;118.99
66506;HTU21D;53332;51.082;5.832;2023-12-29T06:51:19;11.31;118.99
66506;HTU21D;53332;51.082;5.832;2023-12-29T06:53:46;11.31;118.99
66506;HTU21D;53332;51.082;5.832;2023-12-29T06:56:15;11.33;118.99
66506;HTU21D;53332;51.082;5.832;2023-12-29T06:58:41;11.30;118.99
66506;HTU21D;53332;51.082;5.832;2023-12-29T07:01:07;11.30;118.99
66506;HTU21D;53332;51.082;5.832;2023-12-29T07:03:32;11.27;118.99
66506;HTU21D;53332;51.082;5.832;2023-12-29T07:06:00;11.27;118.99
66506;HTU21D;53332;51.082;5.832;2023-12-29T07:08:27;11.18;118.99
66506;HTU21D;53332;51.082;5.832;2023-12-29T07:10:52;11.18;118.99
66506;HTU21D;53332;51.082;5.832;2023-12-29T07:13:18;11.14;118.99
66506;HTU21D;53332;51.082;5.832;2023-12-29T07:15:46;11.11;118.99
66506;HTU21D;53332;51.082;5.832;2023-12-29T07:18:11;11.04;118.99
66506;HTU21D;53332;51.082;5.832;2023-12-29T07:20:37;11.01;118.99
66506;HTU21D;53332;51.082;5.832;2023-12-29T07:23:02;11.00;118.99
66506;HTU21D;53332;51.082;5.832;2023-12-29T07:25:28;10.99;118.99
66506;HTU21D;53332;51.082;5.832;2023-12-29T07:27:54;10.95;118.99
66506;HTU21D;53332;51.082;5.832;2023-12-29T07:30:19;10.95;118.99
66506;HTU21D;53332;51.082;5.832;2023-12-29T07:32:45;10.87;118.99
66506;HTU21D;53332;51.082;5.832;2023-12-29T07:35:10;10.80;118.99
66506;HTU21D;53332;51.082;5.832;2023-12-29T07:37:36;10.81;118.99
66506;HTU21D;53332;51.082;5.832;2023-12-29T07:40:02;10.79;118.99
66506;HTU21D;53332;51.082;5.832;2023-12-29T07:42:29;10.73;118.99
66506;HTU21D;53332;51.082;5.832;2023-12-29T07:44:54;10.73;118.99
66506;HTU21D;53332;51.082;5.832;2023-12-29T07:47:21;10.72;118.99
66506;HTU21D;53332;51.082;5.832;2023-12-29T07:49:47;10.74;118.99
66506;HTU21D;53332;51.082;5.832;2023-12-29T07:52:12;10.73;118.99
66506;HTU21D;53332;51.082;5.832;2023-12-29T07:54:38;10.69;118.99
66506;HTU21D;53332;51.082;5.832;2023-12-29T07:57:04;10.68;118.99
66506;HTU21D;53332;51.082;5.832;2023-12-29T07:59:29;10.64;118.99
66506;HTU21D;53332;51.082;5.832;2023-12-29T08:01:55;10.63;118.99
66506;HTU21D;53332;51.082;5.832;2023-12-29T08:04:22;10.62;118.99
66506;HTU21D;53332;51.082;5.832;2023-12-29T08:06:49;10.64;118.99
66506;HTU21D;53332;51.082;5.832;2023-12-29T08:09:14;10.65;118.99
66506;HTU21D;53332;51.082;5.832;2023-12-29T08:11:40;10.64;118.99
66506;HTU21D;53332;51.082;5.832;2023-12-29T08:14:08;10.58;118.99
66506;HTU21D;53332;51.082;5.832;2023-12-29T08:16:38;10.52;118.99
66506;HTU21D;53332;51.082;5.832;2023-12-29T08:19:04;10.46;118.99
66506;HTU21D;53332;51.082;5.832;2023-12-29T08:21:30;10.48;118.99
66506;HTU21D;53332;51.082;5.832;2023-12-29T08:23:55;10.51;118.99
66506;HTU21D;53332;51.082;5.832;2023-12-29T08:26:21;10.51;118.99
66506;HTU21D;53332;51.082;5.832;2023-12-29T08:28:46;10.48;118.99
66506;HTU21D;53332;51.082;5.832;2023-12-29T08:31:12;10.44;118.99
66506;HTU21D;53332;51.082;5.832;2023-12-29T08:33:38;10.43;118.99
66506;HTU21D;53332;51.082;5.832;2023-12-29T08:36:04;10.41;118.99
66506;HTU21D;53332;51.082;5.832;2023-12-29T08:38:30;10.39;118.99
66506;HTU21D;53332;51.082;5.832;2023-12-29T08:40:56;10.36;118.99
66506;HTU21D;53332;51.082;5.832;2023-12-29T08:43:22;10.37;118.99
66506;HTU21D;53332;51.082;5.832;2023-12-29T08:45:48;10.39;118.99
66506;HTU21D;53332;51.082;5.832;2023-12-29T08:48:13;10.44;118.99
66506;HTU21D;53332;51.082;5.832;2023-12-29T08:50:39;10.51;118.99
66506;HTU21D;53332;51.082;5.832;2023-12-29T08:53:04;10.52;118.99
66506;HTU21D;53332;51.082;5.832;2023-12-29T08:55:30;10.55;118.99
66506;HTU21D;53332;51.082;5.832;2023-12-29T08:57:57;10.58;118.99
66506;HTU21D;53332;51.082;5.832;2023-12-29T09:00:22;10.56;118.99
66506;HTU21D;53332;51.082;5.832;2023-12-29T09:02:48;10.58;118.99
66506;HTU21D;53332;51.082;5.832;2023-12-29T09:05:14;10.64;118.99
66506;HTU21D;53332;51.082;5.832;2023-12-29T09:07:40;10.66;118.99
66506;HTU21D;53332;51.082;5.832;2023-12-29T09:10:06;10.67;118.99
66506;HTU21D;53332;51.082;5.832;2023-12-29T09:12:37;10.69;118.99
66506;HTU21D;53332;51.082;5.832;2023-12-29T09:15:03;10.66;118.99
66506;HTU21D;53332;51.082;5.832;2023-12-29T09:17:28;10.66;118.99
66506;HTU21D;53332;51.082;5.832;2023-12-29T09:19:54;10.56;118.99
66506;HTU21D;53332;51.082;5.832;2023-12-29T09:22:20;10.57;118.99
66506;HTU21D;53332;51.082;5.832;2023-12-29T09:24:45;10.59;118.99
66506;HTU21D;53332;51.082;5.832;2023-12-29T09:27:11;10.59;118.99
66506;HTU21D;53332;51.082;5.832;2023-12-29T09:29:37;10.59;118.99
66506;HTU21D;53332;51.082;5.832;2023-12-29T09:32:03;10.62;118.99
66506;HTU21D;53332;51.082;5.832;2023-12-29T09:34:28;10.64;118.99
66506;HTU21D;53332;51.082;5.832;2023-12-29T09:36:54;10.65;118.99
66506;HTU21D;53332;51.082;5.832;2023-12-29T09:39:19;10.68;118.99
66506;HTU21D;53332;51.082;5.832;2023-12-29T09:41:51;10.74;118.99
66506;HTU21D;53332;51.082;5.832;2023-12-29T09:44:20;10.73;118.99
66506;HTU21D;53332;51.082;5.832;2023-12-29T09:46:53;10.73;118.99
66506;HTU21D;53332;51.082;5.832;2023-12-29T09:49:20;10.74;118.99
66506;HTU21D;53332;51.082;5.832;2023-12-29T09:51:47;10.75;118.99
66506;HTU21D;53332;51.082;5.832;2023-12-29T09:54:13;10.71;118.99
66506;HTU21D;53332;51.082;5.832;2023-12-29T09:56:40;10.72;118.99
66506;HTU21D;53332;51.082;5.832;2023-12-29T09:59:09;10.77;118.99
66506;HTU21D;53332;51.082;5.832;2023-12-29T10:01:37;10.80;118.99
66506;HTU21D;53332;51.082;5.832;2023-12-29T10:04:03;10.80;118.99
66506;HTU21D;53332;51.082;5.832;2023-12-29T10:06:35;10.81;118.99
66506;HTU21D;53332;51.082;5.832;2023-12-29T10:09:03;10.82;118.99
66506;HTU21D;53332;51.082;5.832;2023-12-29T10:11:34;10.81;118.99
66506;HTU21D;53332;51.082;5.832;2023-12-29T10:14:07;10.78;118.99
66506;HTU21D;53332;51.082;5.832;2023-12-29T10:16:49;10.82;118.99
66506;HTU21D;53332;51.082;5.832;2023-12-29T10:19:39;10.84;118.99
66506;HTU21D;53332;51.082;5.832;2023-12-29T10:22:21;10.86;118.99
66506;HTU21D;53332;51.082;5.832;2023-12-29T10:24:46;10.90;118.99
66506;HTU21D;53332;51.082;5.832;2023-12-29T10:27:13;10.95;118.99
66506;HTU21D;53332;51.082;5.832;2023-12-29T10:29:39;10.98;118.99
66506;HTU21D;53332;51.082;5.832;2023-12-29T10:32:04;11.02;118.99
66506;HTU21D;53332;51.082;5.832;2023-12-29T10:34:30;11.07;118.99
66506;HTU21D;53332;51.082;5.832;2023-12-29T10:37:01;11.13;118.99
66506;HTU21D;53332;51.082;5.832;2023-12-29T10:39:29;11.12;118.99
66506;HTU21D;53332;51.082;5.832;2023-12-29T10:42:08;11.19;118.99
66506;HTU21D;53332;51.082;5.832;2023-12-29T10:44:35;11.18;118.99
66506;HTU21D;53332;51.082;5.832;2023-12-29T10:47:08;11.20;118.99
66506;HTU21D;53332;51.082;5.832;2023-12-29T10:49:35;11.20;118.99
66506;HTU21D;53332;51.082;5.832;2023-12-29T10:52:14;11.20;118.99
66506;HTU21D;53332;51.082;5.832;2023-12-29T10:54:40;11.22;118.99
66506;HTU21D;53332;51.082;5.832;2023-12-29T10:57:09;11.18;118.99
66506;HTU21D;53332;51.082;5.832;2023-12-29T10:59:35;11.20;118.99
66506;HTU21D;53332;51.082;5.832;2023-12-29T11:02:01;11.18;118.99
66506;HTU21D;53332;51.082;5.832;2023-12-29T11:04:29;11.15;118.99
66506;HTU21D;53332;51.082;5.832;2023-12-29T11:06:55;11.18;118.99
66506;HTU21D;53332;51.082;5.832;2023-12-29T11:09:28;11.14;118.99
66506;HTU21D;53332;51.082;5.832;2023-12-29T11:12:00;11.15;118.99
66506;HTU21D;53332;51.082;5.832;2023-12-29T11:14:26;11.16;118.99
66506;HTU21D;53332;51.082;5.832;2023-12-29T11:16:54;11.14;118.99
66506;HTU21D;53332;51.082;5.832;2023-12-29T11:19:21;11.09;118.99
66506;HTU21D;53332;51.082;5.832;2023-12-29T11:21:52;11.14;118.99
66506;HTU21D;53332;51.082;5.832;2023-12-29T11:24:21;11.16;118.99
66506;HTU21D;53332;51.082;5.832;2023-12-29T11:26:49;11.16;118.99
66506;HTU21D;53332;51.082;5.832;2023-12-29T11:29:16;11.19;118.99
66506;HTU21D;53332;51.082;5.832;2023-12-29T11:31:43;11.15;118.99
66506;HTU21D;53332;51.082;5.832;2023-12-29T11:34:28;11.14;118.99
66506;HTU21D;53332;51.082;5.832;2023-12-29T11:37:23;11.14;118.99
66506;HTU21D;53332;51.082;5.832;2023-12-29T11:40:31;11.17;118.99
66506;HTU21D;53332;51.082;5.832;2023-12-29T11:43:05;11.22;118.99
66506;HTU21D;53332;51.082;5.832;2023-12-29T11:45:34;11.20;118.99
66506;HTU21D;53332;51.082;5.832;2023-12-29T11:48:01;11.25;118.99
66506;HTU21D;53332;51.082;5.832;2023-12-29T11:53:00;11.37;118.99
66506;HTU21D;53332;51.082;5.832;2023-12-29T11:55:40;11.36;118.99
66506;HTU21D;53332;51.082;5.832;2023-12-29T11:58:25;11.33;118.99
66506;HTU21D;53332;51.082;5.832;2023-12-29T12:00:55;11.30;118.99
66506;HTU21D;53332;51.082;5.832;2023-12-29T12:03:24;11.32;118.99
66506;HTU21D;53332;51.082;5.832;2023-12-29T12:05:52;11.26;118.99
66506;HTU21D;53332;51.082;5.832;2023-12-29T12:08:35;11.23;118.99
66506;HTU21D;53332;51.082;5.832;2023-12-29T12:13:55;11.25;118.99
66506;HTU21D;53332;51.082;5.832;2023-12-29T12:19:15;11.31;118.99
66506;HTU21D;53332;51.082;5.832;2023-12-29T12:21:46;11.30;118.99
66506;HTU21D;53332;51.082;5.832;2023-12-29T12:24:12;11.28;118.99
66506;HTU21D;53332;51.082;5.832;2023-12-29T12:26:40;11.34;118.99
66506;HTU21D;53332;51.082;5.832;2023-12-29T12:29:07;11.37;118.99
66506;HTU21D;53332;51.082;5.832;2023-12-29T12:31:33;11.33;118.99
66506;HTU21D;53332;51.082;5.832;2023-12-29T12:33:59;11.34;118.99
66506;HTU21D;53332;51.082;5.832;2023-12-29T12:36:28;11.36;118.99
66506;HTU21D;53332;51.082;5.832;2023-12-29T12:38:56;11.34;118.99
66506;HTU21D;53332;51.082;5.832;2023-12-29T12:41:25;11.34;118.99
66506;HTU21D;53332;51.082;5.832;2023-12-29T12:44:10;11.34;118.99
66506;HTU21D;53332;51.082;5.832;2023-12-29T12:49:13;11.40;118.99
66506;HTU21D;53332;51.082;5.832;2023-12-29T12:51:39;11.43;118.99
66506;HTU21D;53332;51.082;5.832;2023-12-29T12:54:06;11.46;118.99
66506;HTU21D;53332;51.082;5.832;2023-12-29T12:56:33;11.46;118.99
66506;HTU21D;53332;51.082;5.832;2023-12-29T12:59:01;11.42;118.99
66506;HTU21D;53332;51.082;5.832;2023-12-29T13:01:28;11.44;118.99
66506;HTU21D;53332;51.082;5.832;2023-12-29T13:03:58;11.43;118.99
66506;HTU21D;53332;51.082;5.832;2023-12-29T13:06:24;11.40;118.99
66506;HTU21D;53332;51.082;5.832;2023-12-29T13:08:51;11.43;118.99
66506;HTU21D;53332;51.082;5.832;2023-12-29T13:11:21;11.41;118.99
66506;HTU21D;53332;51.082;5.832;2023-12-29T13:13:48;11.39;118.99
66506;HTU21D;53332;51.082;5.832;2023-12-29T13:16:13;11.40;118.99
66506;HTU21D;53332;51.082;5.832;2023-12-29T13:18:39;11.33;118.99
66506;HTU21D;53332;51.082;5.832;2023-12-29T13:21:06;11.37;118.99
66506;HTU21D;53332;51.082;5.832;2023-12-29T13:23:32;11.32;118.99
66506;HTU21D;53332;51.082;5.832;2023-12-29T13:26:07;11.28;118.99
66506;HTU21D;53332;51.082;5.832;2023-12-29T13:28:35;11.27;118.99
66506;HTU21D;53332;51.082;5.832;2023-12-29T13:31:03;11.26;118.99
66506;HTU21D;53332;51.082;5.832;2023-12-29T13:36:09;11.27;118.99
66506;HTU21D;53332;51.082;5.832;2023-12-29T13:38:44;11.22;118.99
66506;HTU21D;53332;51.082;5.832;2023-12-29T13:41:16;11.17;118.99
66506;HTU21D;53332;51.082;5.832;2023-12-29T13:43:45;11.17;118.99
66506;HTU21D;53332;51.082;5.832;2023-12-29T13:46:12;11.16;118.99
66506;HTU21D;53332;51.082;5.832;2023-12-29T13:48:40;11.11;118.99
66506;HTU21D;53332;51.082;5.832;2023-12-29T13:51:07;11.04;118.99
66506;HTU21D;53332;51.082;5.832;2023-12-29T13:53:33;11.00;118.99
66506;HTU21D;53332;51.082;5.832;2023-12-29T14:26:59;10.29;118.99
66506;HTU21D;53332;51.082;5.832;2023-12-29T14:29:25;10.39;118.99
66506;HTU21D;53332;51.082;5.832;2023-12-29T14:31:52;10.49;118.99
66506;HTU21D;53332;51.082;5.832;2023-12-29T14:34:18;10.57;118.99
66506;HTU21D;53332;51.082;5.832;2023-12-29T14:36:44;10.66;118.99
66506;HTU21D;53332;51.082;5.832;2023-12-29T14:39:11;10.69;118.99
66506;HTU21D;53332;51.082;5.832;2023-12-29T14:41:38;10.73;118.99
66506;HTU21D;53332;51.082;5.832;2023-12-29T14:44:04;10.88;118.99
66506;HTU21D;53332;51.082;5.832;2023-12-29T14:46:30;10.96;118.99
66506;HTU21D;53332;51.082;5.832;2023-12-29T14:48:57;10.99;118.99
66506;HTU21D;53332;51.082;5.832;2023-12-29T14:51:26;11.05;118.99
66506;HTU21D;53332;51.082;5.832;2023-12-29T14:53:52;11.10;118.99
66506;HTU21D;53332;51.082;5.832;2023-12-29T14:56:18;11.13;118.99
66506;HTU21D;53332;51.082;5.832;2023-12-29T14:58:44;11.16;118.99
66506;HTU21D;53332;51.082;5.832;2023-12-29T15:01:10;11.14;118.99
66506;HTU21D;53332;51.082;5.832;2023-12-29T15:03:36;11.13;118.99
66506;HTU21D;53332;51.082;5.832;2023-12-29T15:06:05;11.16;118.99
66506;HTU21D;53332;51.082;5.832;2023-12-29T15:08:30;11.17;118.99
66506;HTU21D;53332;51.082;5.832;2023-12-29T15:11:06;11.19;118.99
66506;HTU21D;53332;51.082;5.832;2023-12-29T15:13:32;11.16;118.99
66506;HTU21D;53332;51.082;5.832;2023-12-29T15:15:58;11.19;118.99
66506;HTU21D;53332;51.082;5.832;2023-12-29T15:18:28;11.19;118.99
66506;HTU21D;53332;51.082;5.832;2023-12-29T15:20:56;11.20;118.99
66506;HTU21D;53332;51.082;5.832;2023-12-29T15:23:21;11.25;118.99
66506;HTU21D;53332;51.082;5.832;2023-12-29T15:25:49;11.25;118.99
66506;HTU21D;53332;51.082;5.832;2023-12-29T15:28:15;11.22;118.99
66506;HTU21D;53332;51.082;5.832;2023-12-29T15:30:42;11.25;118.99
66506;HTU21D;53332;51.082;5.832;2023-12-29T15:33:08;11.20;118.99
66506;HTU21D;53332;51.082;5.832;2023-12-29T15:35:33;11.17;118.99
66506;HTU21D;53332;51.082;5.832;2023-12-29T15:37:59;11.19;118.99
66506;HTU21D;53332;51.082;5.832;2023-12-29T15:40:24;11.16;118.99
66506;HTU21D;53332;51.082;5.832;2023-12-29T15:42:50;11.16;118.99
66506;HTU21D;53332;51.082;5.832;2023-12-29T15:45:15;11.10;118.99
66506;HTU21D;53332;51.082;5.832;2023-12-29T15:47:44;11.12;118.99
66506;HTU21D;53332;51.082;5.832;2023-12-29T15:50:09;11.09;118.99